Time;durP1;ratioP1;P1;durP2;ratioP2;P2;SDS_P1;SDS_P2;PMS_P1;PMS_P2;Temp;Humidity;BMP_temperature;BMP_pressure;BME280_temperature;BME280_humidity;BME280_pressure;Samples;Min_cycle;Max_cycle;Signal;HPM_P1;HPM_P2
2021/06/06 11:03:23;;;;;;;;;2.00;2.00;;;;;;;;5150314;27;13364;-49
2021/06/06 11:05:51;;;;;;;;;1.50;1.50;;;;;;;;5032326;27;10585;-50
2021/06/06 11:08:17;;;;;;;;;1.50;1.50;;;;;;;;5118531;27;8894;-48
2021/06/06 11:10:43;;;;;;;;;1.00;1.00;;;;;;;;5098445;27;8793;-47
2021/06/06 11:13:15;;;;;;;;;2.00;2.00;;;;;;;;5077391;27;10660;-49
2021/06/06 11:15:57;;;;;;;;;2.00;2.00;;;;;;;;5117754;27;8873;-56
2021/06/06 11:18:23;;;;;;;;;3.00;2.50;;;;;;;;5131655;27;8773;-49
2021/06/06 11:20:51;;;;;;;;;1.33;1.33;;;;;;;;5132777;27;8782;-55
2021/06/06 11:23:20;;;;;;;;;2.25;2.25;;;;;;;;5134278;27;8821;-61
2021/06/06 11:25:49;;;;;;;;;2.75;2.25;;;;;;;;5118623;27;8774;-55
2021/06/06 11:28:33;;;;;;;;;2.25;2.25;;;;;;;;5131668;27;8794;-49
2021/06/06 11:30:58;;;;;;;;;3.00;3.00;;;;;;;;5129421;27;8816;-50
2021/06/06 11:33:43;;;;;;;;;4.00;4.00;;;;;;;;5112616;27;8792;-50
2021/06/06 11:36:09;;;;;;;;;6.25;6.00;;;;;;;;5107986;27;9541;-53
2021/06/06 11:38:40;;;;;;;;;2.00;2.00;;;;;;;;5089289;28;8879;-56
2021/06/06 11:41:05;;;;;;;;;4.25;3.50;;;;;;;;5094851;28;8812;-53
2021/06/06 11:43:32;;;;;;;;;4.00;4.00;;;;;;;;5113651;27;8782;-52
2021/06/06 11:46:16;;;;;;;;;4.00;3.50;;;;;;;;5106851;27;8770;-50
2021/06/06 11:48:55;;;;;;;;;4.25;3.50;;;;;;;;5105116;27;8760;-50
2021/06/06 11:51:38;;;;;;;;;3.00;3.00;;;;;;;;5106252;27;8781;-52
2021/06/06 11:54:30;;;;;;;;;4.00;4.00;;;;;;;;5094924;27;8766;-52
2021/06/06 11:56:57;;;;;;;;;2.75;2.75;;;;;;;;5111721;27;8796;-51
2021/06/06 11:59:33;;;;;;;;;0.25;0.25;;;;;;;;5115469;27;8806;-56
2021/06/06 12:02:00;;;;;;;;;3.25;3.25;;;;;;;;5112559;27;8960;-50
2021/06/06 12:04:35;;;;;;;;;3.75;3.75;;;;;;;;5117581;27;8776;-50
2021/06/06 12:07:12;;;;;;;;;3.00;3.00;;;;;;;;5114062;27;8783;-51
2021/06/06 12:09:38;;;;;;;;;4.00;4.00;;;;;;;;5094443;27;8949;-52
2021/06/06 12:12:11;;;;;;;;;4.50;4.50;;;;;;;;5112962;27;8780;-55
2021/06/06 12:14:37;;;;;;;;;3.25;3.25;;;;;;;;5099715;27;8788;-53
2021/06/06 12:17:16;;;;;;;;;2.00;2.00;;;;;;;;5101746;27;8786;-51
2021/06/06 12:19:43;;;;;;;;;209.20;143.00;;;;;;;;5098896;27;10402;-50
2021/06/06 12:22:12;;;;;;;;;270.67;193.33;;;;;;;;5087462;27;13564;-48
2021/06/06 12:24:37;;;;;;;;;263.75;197.50;;;;;;;;5076014;28;9008;-44
2021/06/06 12:27:10;;;;;;;;;178.33;135.33;;;;;;;;5018852;27;11651;-49
2021/06/06 12:29:45;;;;;;;;;152.25;116.50;;;;;;;;5082299;27;8778;-49
2021/06/06 12:32:12;;;;;;;;;141.00;108.75;;;;;;;;5096391;27;8782;-49
2021/06/06 12:34:39;;;;;;;;;143.80;99.00;;;;;;;;5098636;27;8830;-50
2021/06/06 12:37:06;;;;;;;;;109.80;86.20;;;;;;;;5086393;28;8766;-49
2021/06/06 12:39:33;;;;;;;;;98.60;76.80;;;;;;;;5078727;27;8758;-51
2021/06/06 12:42:01;;;;;;;;;80.00;61.40;;;;;;;;5079823;27;8797;-52
2021/06/06 12:44:27;;;;;;;;;76.40;58.00;;;;;;;;5085288;28;8827;-54
2021/06/06 12:47:00;;;;;;;;;78.80;59.80;;;;;;;;5073381;28;8924;-54
2021/06/06 12:49:48;;;;;;;;;71.00;54.80;;;;;;;;5070435;28;8863;-55
2021/06/06 12:52:21;;;;;;;;;76.20;57.40;;;;;;;;5042855;28;8798;-50
2021/06/06 12:54:46;;;;;;;;;67.60;48.60;;;;;;;;4933322;28;12467;-49
2021/06/06 12:57:20;;;;;;;;;65.25;49.25;;;;;;;;5074722;28;8896;-49
2021/06/06 12:59:46;;;;;;;;;66.60;48.80;;;;;;;;5076843;28;8803;-47
2021/06/06 13:02:22;;;;;;;;;62.60;46.40;;;;;;;;5099065;27;8801;-50
2021/06/06 13:04:59;;;;;;;;;60.80;44.00;;;;;;;;5072341;28;8976;-49
2021/06/06 13:07:29;;;;;;;;;55.20;41.20;;;;;;;;5077360;28;8766;-48
2021/06/06 13:09:55;;;;;;;;;53.00;42.00;;;;;;;;5076272;28;8905;-49
2021/06/06 13:12:25;;;;;;;;;52.50;41.25;;;;;;;;5072243;28;8908;-48
2021/06/06 13:14:57;;;;;;;;;42.00;34.20;;;;;;;;5072305;28;10349;-53
2021/06/06 13:17:40;;;;;;;;;47.60;36.20;;;;;;;;5077325;28;8787;-53
2021/06/06 13:20:11;;;;;;;;;48.80;33.80;;;;;;;;5095923;27;8764;-53
2021/06/06 13:22:37;;;;;;;;;46.60;35.80;;;;;;;;5105730;27;8794;-53
2021/06/06 13:25:12;;;;;;;;;46.20;33.60;;;;;;;;5095453;28;8778;-53
2021/06/06 13:27:38;;;;;;;;;38.00;33.00;;;;;;;;5093764;27;8778;-54
2021/06/06 13:30:30;;;;;;;;;40.20;31.80;;;;;;;;5087792;28;9493;-54
2021/06/06 13:32:57;;;;;;;;;39.80;34.00;;;;;;;;5096017;27;8766;-54
2021/06/06 13:35:23;;;;;;;;;37.60;31.20;;;;;;;;5087533;28;9537;-54
2021/06/06 13:37:48;;;;;;;;;37.25;29.50;;;;;;;;5082009;28;8808;-54
2021/06/06 13:40:16;;;;;;;;;35.25;30.25;;;;;;;;5081044;28;11643;-54
2021/06/06 13:42:41;;;;;;;;;37.40;31.80;;;;;;;;5079233;28;9035;-54
2021/06/06 13:45:07;;;;;;;;;35.50;30.50;;;;;;;;5083847;28;8790;-54
2021/06/06 13:47:33;;;;;;;;;29.75;26.50;;;;;;;;5083879;28;8815;-54
2021/06/06 13:49:59;;;;;;;;;33.60;28.20;;;;;;;;5089283;28;8798;-54
2021/06/06 13:52:24;;;;;;;;;28.75;26.25;;;;;;;;5097141;27;8786;-54
2021/06/06 13:54:50;;;;;;;;;36.50;27.75;;;;;;;;5100740;28;8745;-54
2021/06/06 13:57:15;;;;;;;;;25.50;20.75;;;;;;;;5098288;27;8887;-54
2021/06/06 13:59:40;;;;;;;;;28.50;23.75;;;;;;;;5100340;27;8828;-54
2021/06/06 14:02:10;;;;;;;;;26.50;23.75;;;;;;;;5095046;28;8870;-55
2021/06/06 14:04:35;;;;;;;;;25.80;20.20;;;;;;;;5099808;27;8805;-54
2021/06/06 14:07:00;;;;;;;;;26.75;25.25;;;;;;;;5096513;28;8817;-54
2021/06/06 14:09:25;;;;;;;;;25.67;21.00;;;;;;;;5097560;27;8924;-54
2021/06/06 14:11:52;;;;;;;;;21.67;20.67;;;;;;;;5093643;27;8765;-54
2021/06/06 14:14:18;;;;;;;;;27.25;20.50;;;;;;;;5095296;27;8889;-51
2021/06/06 14:16:43;;;;;;;;;31.00;23.33;;;;;;;;5099832;27;8903;-49
2021/06/06 14:19:10;;;;;;;;;23.00;19.67;;;;;;;;5093191;27;8781;-49
2021/06/06 14:21:36;;;;;;;;;20.00;17.50;;;;;;;;5097156;27;8934;-49
2021/06/06 14:24:03;;;;;;;;;17.67;16.00;;;;;;;;5095739;28;8765;-49
2021/06/06 14:26:31;;;;;;;;;17.75;16.25;;;;;;;;5096801;27;8815;-48
2021/06/06 14:28:57;;;;;;;;;27.50;20.25;;;;;;;;5100984;28;8810;-49
2021/06/06 14:31:23;;;;;;;;;17.67;14.67;;;;;;;;5101830;27;8775;-51
2021/06/06 14:33:50;;;;;;;;;11.75;10.50;;;;;;;;5092555;27;8748;-51
2021/06/06 14:36:16;;;;;;;;;16.75;14.25;;;;;;;;5101034;27;8803;-49
2021/06/06 14:38:41;;;;;;;;;16.50;12.25;;;;;;;;5097831;27;8809;-49
2021/06/06 14:41:08;;;;;;;;;13.67;13.00;;;;;;;;5091005;28;8824;-49
2021/06/06 14:43:33;;;;;;;;;10.25;9.25;;;;;;;;5093656;27;8822;-43
2021/06/06 14:45:59;;;;;;;;;10.67;10.67;;;;;;;;5089000;27;9529;-48
2021/06/06 14:48:27;;;;;;;;;13.67;11.67;;;;;;;;5096534;27;11456;-45
2021/06/06 14:50:53;;;;;;;;;12.25;11.00;;;;;;;;5098994;27;8740;-46
2021/06/06 14:53:19;;;;;;;;;8.00;8.00;;;;;;;;5100674;28;8776;-57
2021/06/06 14:55:44;;;;;;;;;9.25;8.75;;;;;;;;5097304;28;8788;-54
2021/06/06 14:58:10;;;;;;;;;8.00;8.00;;;;;;;;5099132;27;9722;-57
2021/06/06 15:00:40;;;;;;;;;9.33;9.00;;;;;;;;5096371;28;8776;-67
2021/06/06 15:03:06;;;;;;;;;8.75;8.75;;;;;;;;5096077;28;8865;-53
2021/06/06 15:05:31;;;;;;;;;8.67;8.33;;;;;;;;5077423;28;8932;-54
2021/06/06 15:07:58;;;;;;;;;10.00;9.00;;;;;;;;5085423;28;8793;-54
2021/06/06 15:10:23;;;;;;;;;8.00;8.00;;;;;;;;5079329;28;8902;-54
2021/06/06 15:12:49;;;;;;;;;9.00;8.00;;;;;;;;5078095;28;8884;-57
2021/06/06 15:15:16;;;;;;;;;8.33;8.33;;;;;;;;5076900;28;8814;-59
2021/06/06 15:17:42;;;;;;;;;8.25;8.25;;;;;;;;5082557;28;11518;-58
2021/06/06 15:20:08;;;;;;;;;8.50;8.00;;;;;;;;5096270;28;8796;-52
2021/06/06 15:22:34;;;;;;;;;8.00;7.67;;;;;;;;5076615;28;8882;-58
2021/06/06 15:24:59;;;;;;;;;8.00;8.00;;;;;;;;5088007;28;8788;-55
2021/06/06 15:27:25;;;;;;;;;9.33;8.33;;;;;;;;5100077;28;8776;-58
2021/06/06 15:29:51;;;;;;;;;5.00;5.00;;;;;;;;5068833;28;11677;-58
2021/06/06 15:32:16;;;;;;;;;6.00;5.33;;;;;;;;5101971;28;8874;-52
2021/06/06 15:34:41;;;;;;;;;8.33;8.33;;;;;;;;5095321;28;8795;-62
2021/06/06 15:37:06;;;;;;;;;4.33;4.33;;;;;;;;5093561;27;8831;-53
2021/06/06 15:39:34;;;;;;;;;8.00;7.33;;;;;;;;5094826;28;8794;-51
2021/06/06 15:41:59;;;;;;;;;8.00;7.00;;;;;;;;5096758;28;8798;-53
2021/06/06 15:44:25;;;;;;;;;8.00;7.67;;;;;;;;5100920;28;8846;-55
2021/06/06 15:46:53;;;;;;;;;6.00;6.00;;;;;;;;5092947;28;8792;-53
2021/06/06 15:49:18;;;;;;;;;7.25;7.25;;;;;;;;5097153;27;8824;-54
2021/06/06 15:51:45;;;;;;;;;8.00;8.00;;;;;;;;5092300;28;9512;-54
2021/06/06 15:54:12;;;;;;;;;6.50;6.50;;;;;;;;5082037;28;8824;-54
2021/06/06 15:56:37;;;;;;;;;5.75;5.50;;;;;;;;5079301;28;8797;-52
2021/06/06 15:59:03;;;;;;;;;6.67;6.67;;;;;;;;5091931;28;8786;-53
2021/06/06 16:01:29;;;;;;;;;5.50;5.50;;;;;;;;5080296;28;8909;-50
2021/06/06 16:03:54;;;;;;;;;6.00;6.00;;;;;;;;5086113;28;8908;-52
2021/06/06 16:06:20;;;;;;;;;5.00;5.00;;;;;;;;5086949;28;8753;-53
2021/06/06 16:08:45;;;;;;;;;6.75;6.25;;;;;;;;5084358;27;8775;-52
2021/06/06 16:11:12;;;;;;;;;6.00;6.00;;;;;;;;5083560;28;8812;-53
2021/06/06 16:13:37;;;;;;;;;5.50;5.50;;;;;;;;5085197;28;8797;-51
2021/06/06 16:16:04;;;;;;;;;6.67;6.67;;;;;;;;5084076;28;8774;-51
2021/06/06 16:18:29;;;;;;;;;6.00;6.00;;;;;;;;5096522;28;8749;-61
2021/06/06 16:20:55;;;;;;;;;4.33;4.33;;;;;;;;5105799;27;8838;-52
2021/06/06 16:23:20;;;;;;;;;5.33;5.33;;;;;;;;5099828;27;9777;-55
2021/06/06 16:25:45;;;;;;;;;5.00;5.00;;;;;;;;5102407;27;8835;-52
2021/06/06 16:28:11;;;;;;;;;6.00;6.00;;;;;;;;5100647;27;8792;-50
2021/06/06 16:30:36;;;;;;;;;6.00;5.00;;;;;;;;5101906;27;8967;-51
2021/06/06 16:33:03;;;;;;;;;5.67;5.67;;;;;;;;5101041;27;8819;-51
2021/06/06 16:35:31;;;;;;;;;5.00;5.00;;;;;;;;5094689;28;9507;-50
2021/06/06 16:37:56;;;;;;;;;4.50;4.50;;;;;;;;5100548;27;8930;-50
2021/06/06 16:40:22;;;;;;;;;6.00;5.00;;;;;;;;5099168;27;8888;-50
2021/06/06 16:42:48;;;;;;;;;4.50;4.50;;;;;;;;5086017;28;8784;-50
2021/06/06 16:45:15;;;;;;;;;4.00;4.00;;;;;;;;5083375;28;8882;-50
2021/06/06 16:47:41;;;;;;;;;6.00;5.25;;;;;;;;5073601;28;8816;-50
2021/06/06 16:50:07;;;;;;;;;4.67;4.33;;;;;;;;5084671;28;8800;-50
2021/06/06 16:52:33;;;;;;;;;6.00;6.00;;;;;;;;5079683;28;8813;-50
2021/06/06 16:55:00;;;;;;;;;4.67;4.67;;;;;;;;5075441;28;8774;-50
2021/06/06 16:57:25;;;;;;;;;4.50;4.50;;;;;;;;5082213;28;8800;-51
2021/06/06 16:59:51;;;;;;;;;5.00;5.00;;;;;;;;5079614;28;8746;-51
2021/06/06 17:02:16;;;;;;;;;5.00;5.00;;;;;;;;5077897;28;8848;-51
2021/06/06 17:04:41;;;;;;;;;6.00;5.67;;;;;;;;5099688;27;9006;-51
2021/06/06 17:07:07;;;;;;;;;6.00;5.00;;;;;;;;5091660;27;8820;-51
2021/06/06 17:09:32;;;;;;;;;4.00;4.00;;;;;;;;5090900;28;8822;-51
2021/06/06 17:11:57;;;;;;;;;4.33;4.33;;;;;;;;5095748;27;8751;-51
2021/06/06 17:14:22;;;;;;;;;4.00;4.00;;;;;;;;5079647;28;9883;-51
2021/06/06 17:16:48;;;;;;;;;5.00;5.00;;;;;;;;5078065;28;8885;-50
2021/06/06 17:19:13;;;;;;;;;4.67;4.67;;;;;;;;5093985;27;8880;-51
2021/06/06 17:21:38;;;;;;;;;4.00;4.00;;;;;;;;5099491;27;8802;-51
2021/06/06 17:24:05;;;;;;;;;6.00;6.00;;;;;;;;5100925;27;8777;-50
2021/06/06 17:26:34;;;;;;;;;4.00;4.00;;;;;;;;5089096;27;8878;-51
2021/06/06 17:29:00;;;;;;;;;2.25;2.25;;;;;;;;5100315;27;8784;-51
2021/06/06 17:31:26;;;;;;;;;4.00;4.00;;;;;;;;5095064;27;8764;-51
2021/06/06 17:33:51;;;;;;;;;6.00;6.00;;;;;;;;5094559;27;8784;-50
2021/06/06 17:36:16;;;;;;;;;5.00;5.00;;;;;;;;5097808;27;8769;-53
2021/06/06 17:38:41;;;;;;;;;5.00;5.00;;;;;;;;5096534;27;8793;-58
2021/06/06 17:41:08;;;;;;;;;4.67;4.67;;;;;;;;5095186;27;8789;-50
2021/06/06 17:43:34;;;;;;;;;4.00;4.00;;;;;;;;5101016;27;8956;-64
2021/06/06 17:46:00;;;;;;;;;4.75;4.00;;;;;;;;5082989;28;8972;-55
2021/06/06 17:48:26;;;;;;;;;5.25;5.25;;;;;;;;5084433;28;8889;-54
2021/06/06 17:50:51;;;;;;;;;4.33;4.00;;;;;;;;5102670;27;8749;-55
2021/06/06 17:53:18;;;;;;;;;4.00;4.00;;;;;;;;5094770;28;10895;-57
2021/06/06 17:55:45;;;;;;;;;4.00;4.00;;;;;;;;5083592;28;8788;-49
2021/06/06 17:58:13;;;;;;;;;5.00;5.00;;;;;;;;5091940;28;8754;-49
2021/06/06 18:00:39;;;;;;;;;4.00;4.00;;;;;;;;5097038;27;8765;-48
2021/06/06 18:03:05;;;;;;;;;4.67;4.33;;;;;;;;5100560;28;8776;-48
2021/06/06 18:05:31;;;;;;;;;4.67;4.67;;;;;;;;5096509;28;8970;-50
2021/06/06 18:07:56;;;;;;;;;6.00;5.00;;;;;;;;5093306;28;8774;-52
2021/06/06 18:10:23;;;;;;;;;5.00;5.00;;;;;;;;5079567;28;8775;-51
2021/06/06 18:12:49;;;;;;;;;4.50;4.50;;;;;;;;5080055;28;8762;-51
2021/06/06 18:15:14;;;;;;;;;4.00;4.00;;;;;;;;5083384;28;8774;-52
2021/06/06 18:17:39;;;;;;;;;5.00;5.00;;;;;;;;5079975;28;8769;-52
2021/06/06 18:20:06;;;;;;;;;3.67;3.33;;;;;;;;5080865;28;9704;-52
2021/06/06 18:22:32;;;;;;;;;4.50;4.50;;;;;;;;5081551;28;8823;-51
2021/06/06 18:24:57;;;;;;;;;5.00;5.00;;;;;;;;5096054;27;8952;-48
2021/06/06 18:27:23;;;;;;;;;3.33;3.33;;;;;;;;5101263;28;8771;-51
2021/06/06 18:29:48;;;;;;;;;4.00;4.00;;;;;;;;5079115;28;8816;-53
2021/06/06 18:32:13;;;;;;;;;5.00;4.33;;;;;;;;5078980;28;10239;-49
2021/06/06 18:34:39;;;;;;;;;4.33;4.00;;;;;;;;5079061;28;8777;-50
2021/06/06 18:37:04;;;;;;;;;3.33;3.33;;;;;;;;5082976;28;8892;-49
2021/06/06 18:39:30;;;;;;;;;3.67;3.67;;;;;;;;5079309;28;8831;-50
2021/06/06 18:41:55;;;;;;;;;4.00;4.00;;;;;;;;5075555;28;8764;-49
2021/06/06 18:44:22;;;;;;;;;4.33;4.33;;;;;;;;5080380;28;8793;-48
2021/06/06 18:46:48;;;;;;;;;4.50;4.50;;;;;;;;5082241;28;8921;-48
2021/06/06 18:49:13;;;;;;;;;4.33;4.33;;;;;;;;5090121;28;9099;-47
2021/06/06 18:51:39;;;;;;;;;5.67;5.67;;;;;;;;5078611;28;8774;-48
2021/06/06 18:54:05;;;;;;;;;4.25;4.00;;;;;;;;5087056;28;8866;-49
2021/06/06 18:56:30;;;;;;;;;4.00;4.00;;;;;;;;5092984;27;9709;-50
2021/06/06 18:58:55;;;;;;;;;4.33;4.33;;;;;;;;5095788;28;9600;-48
2021/06/06 19:01:22;;;;;;;;;4.67;4.67;;;;;;;;5099347;28;8796;-46
2021/06/06 19:03:48;;;;;;;;;4.00;4.00;;;;;;;;5098965;27;8855;-47
2021/06/06 19:06:21;;;;;;;;;4.00;4.00;;;;;;;;5088971;28;8750;-51
2021/06/06 19:08:47;;;;;;;;;3.50;3.00;;;;;;;;5085249;28;8896;-48
2021/06/06 19:11:16;;;;;;;;;3.67;3.67;;;;;;;;5082735;28;8889;-49
2021/06/06 19:13:41;;;;;;;;;4.25;4.25;;;;;;;;5083632;28;8804;-47
2021/06/06 19:16:07;;;;;;;;;4.33;4.00;;;;;;;;5089930;28;8876;-47
2021/06/06 19:18:32;;;;;;;;;3.33;3.33;;;;;;;;5092262;27;8822;-49
2021/06/06 19:20:58;;;;;;;;;3.67;3.00;;;;;;;;5099583;27;8763;-48
2021/06/06 19:23:26;;;;;;;;;4.25;4.25;;;;;;;;5097219;28;8796;-47
2021/06/06 19:25:52;;;;;;;;;4.00;3.25;;;;;;;;5104464;27;8914;-48
2021/06/06 19:28:19;;;;;;;;;3.00;3.00;;;;;;;;5094649;28;9703;-49
2021/06/06 19:30:45;;;;;;;;;3.00;3.00;;;;;;;;5080325;28;8870;-49
2021/06/06 19:33:11;;;;;;;;;3.00;2.67;;;;;;;;5086586;28;8759;-48
2021/06/06 19:35:38;;;;;;;;;4.00;3.50;;;;;;;;5082713;28;8890;-48
2021/06/06 19:38:05;;;;;;;;;4.25;4.00;;;;;;;;5073663;28;8786;-49
2021/06/06 19:40:30;;;;;;;;;3.75;3.75;;;;;;;;5077911;28;8795;-49
2021/06/06 19:42:55;;;;;;;;;4.00;4.00;;;;;;;;5091054;27;8786;-49
2021/06/06 19:45:22;;;;;;;;;3.00;3.00;;;;;;;;5083320;28;8770;-49
2021/06/06 19:47:48;;;;;;;;;4.00;4.00;;;;;;;;5085167;28;8733;-49
2021/06/06 19:50:14;;;;;;;;;3.00;3.00;;;;;;;;5085771;28;8779;-49
2021/06/06 19:52:39;;;;;;;;;3.00;3.00;;;;;;;;5086560;28;8926;-47
2021/06/06 19:55:07;;;;;;;;;4.00;4.00;;;;;;;;5080726;28;8812;-47
2021/06/06 19:57:32;;;;;;;;;4.00;4.00;;;;;;;;5086241;28;8754;-49
2021/06/06 19:59:57;;;;;;;;;2.67;2.67;;;;;;;;5097880;27;9794;-50
2021/06/06 20:02:23;;;;;;;;;4.00;4.00;;;;;;;;5083263;28;9548;-51
2021/06/06 20:04:48;;;;;;;;;2.67;2.67;;;;;;;;5084200;28;8802;-50
2021/06/06 20:07:13;;;;;;;;;4.33;4.33;;;;;;;;5082536;28;8820;-51
2021/06/06 20:09:39;;;;;;;;;4.00;4.00;;;;;;;;5084397;28;8814;-50
2021/06/06 20:12:05;;;;;;;;;3.00;3.00;;;;;;;;5083786;28;8791;-51
2021/06/06 20:14:33;;;;;;;;;4.75;4.75;;;;;;;;5088431;28;8789;-52
2021/06/06 20:16:58;;;;;;;;;3.00;3.00;;;;;;;;5088181;28;8810;-50
2021/06/06 20:19:24;;;;;;;;;3.33;3.33;;;;;;;;5084374;28;8824;-51
2021/06/06 20:21:55;;;;;;;;;4.00;4.00;;;;;;;;5080907;28;9524;-50
2021/06/06 20:24:22;;;;;;;;;3.75;3.75;;;;;;;;5076032;28;8769;-49
2021/06/06 20:26:48;;;;;;;;;4.75;4.75;;;;;;;;5089593;28;8779;-52
2021/06/06 20:29:13;;;;;;;;;4.00;3.00;;;;;;;;5102396;27;8768;-49
2021/06/06 20:31:42;;;;;;;;;5.00;5.00;;;;;;;;5091184;28;8796;-49
2021/06/06 20:36:40;;;;;;;;;3.00;3.00;;;;;;;;5079048;28;8787;-50
2021/06/06 20:39:07;;;;;;;;;4.00;4.00;;;;;;;;5073688;28;8846;-60
2021/06/06 20:41:35;;;;;;;;;5.75;5.25;;;;;;;;5076221;28;8804;-49
2021/06/06 20:44:02;;;;;;;;;4.25;4.25;;;;;;;;5083549;28;11816;-48
2021/06/06 20:46:28;;;;;;;;;4.75;4.25;;;;;;;;5081875;28;8897;-49
2021/06/06 20:48:55;;;;;;;;;5.25;5.25;;;;;;;;5079245;28;8841;-48
2021/06/06 20:51:20;;;;;;;;;5.00;5.00;;;;;;;;5088775;28;8827;-49
2021/06/06 20:53:45;;;;;;;;;4.67;4.67;;;;;;;;5095371;27;8698;-48
2021/06/06 20:56:10;;;;;;;;;3.00;3.00;;;;;;;;5102057;27;8793;-48
2021/06/06 20:58:36;;;;;;;;;4.33;4.33;;;;;;;;5079868;27;8801;-49
2021/06/06 21:01:02;;;;;;;;;4.00;4.00;;;;;;;;5082709;28;8789;-48
2021/06/06 21:03:28;;;;;;;;;5.33;5.33;;;;;;;;5082628;28;11591;-49
2021/06/06 21:05:54;;;;;;;;;6.00;5.00;;;;;;;;5082445;28;8884;-47
2021/06/06 21:08:21;;;;;;;;;4.00;4.00;;;;;;;;5084963;28;8880;-48
2021/06/06 21:10:46;;;;;;;;;7.00;7.00;;;;;;;;5083867;28;8764;-47
2021/06/06 21:13:11;;;;;;;;;4.67;4.67;;;;;;;;5083775;28;8801;-48
2021/06/06 21:15:37;;;;;;;;;5.00;5.00;;;;;;;;5088978;27;9035;-47
2021/06/06 21:18:02;;;;;;;;;7.00;6.67;;;;;;;;5101383;27;8787;-48
2021/06/06 21:20:32;;;;;;;;;4.33;4.33;;;;;;;;5081456;28;8934;-48
2021/06/06 21:22:58;;;;;;;;;5.00;5.00;;;;;;;;5102269;27;8816;-48
2021/06/06 21:25:23;;;;;;;;;6.00;6.00;;;;;;;;5089048;27;8893;-48
2021/06/06 21:27:49;;;;;;;;;6.00;6.00;;;;;;;;5082066;28;8770;-48
2021/06/06 21:30:16;;;;;;;;;6.00;6.00;;;;;;;;5082154;28;8778;-48
2021/06/06 21:32:41;;;;;;;;;4.25;4.25;;;;;;;;5084316;28;8777;-48
2021/06/06 21:35:07;;;;;;;;;6.00;6.00;;;;;;;;5081910;28;8781;-48
2021/06/06 21:37:32;;;;;;;;;5.00;5.00;;;;;;;;5082475;28;8781;-48
2021/06/06 21:39:58;;;;;;;;;4.33;4.00;;;;;;;;5082565;28;9648;-47
2021/06/06 21:42:23;;;;;;;;;5.67;4.67;;;;;;;;5080715;28;8782;-48
2021/06/06 21:44:48;;;;;;;;;3.00;3.00;;;;;;;;5084683;28;8737;-49
2021/06/06 21:47:14;;;;;;;;;6.33;5.33;;;;;;;;5084028;28;8784;-48
2021/06/06 21:49:39;;;;;;;;;5.00;5.00;;;;;;;;5099227;28;8757;-48
2021/06/06 21:52:05;;;;;;;;;5.33;4.33;;;;;;;;5089003;28;8786;-48
2021/06/06 21:54:30;;;;;;;;;5.00;5.00;;;;;;;;5080009;28;8802;-48
2021/06/06 21:56:55;;;;;;;;;5.67;5.67;;;;;;;;5082926;28;8766;-48
2021/06/06 21:59:21;;;;;;;;;4.33;4.33;;;;;;;;5083081;28;8777;-48
2021/06/06 22:01:46;;;;;;;;;3.67;3.67;;;;;;;;5092907;28;8830;-48
2021/06/06 22:04:13;;;;;;;;;4.33;4.33;;;;;;;;5085427;27;8790;-48
2021/06/06 22:06:39;;;;;;;;;6.25;6.00;;;;;;;;5084404;27;8782;-48
2021/06/06 22:09:06;;;;;;;;;5.00;4.50;;;;;;;;5084826;28;8785;-49
2021/06/06 22:11:32;;;;;;;;;5.00;5.00;;;;;;;;5079888;28;8820;-48
2021/06/06 22:13:57;;;;;;;;;2.67;2.00;;;;;;;;5078785;28;8803;-48
2021/06/06 22:16:24;;;;;;;;;5.00;5.00;;;;;;;;5077181;28;8793;-48
2021/06/06 22:18:56;;;;;;;;;6.00;6.00;;;;;;;;5076019;28;8769;-48
2021/06/06 22:21:40;;;;;;;;;5.00;5.00;;;;;;;;5083105;28;8775;-48
2021/06/06 22:24:24;;;;;;;;;5.00;5.00;;;;;;;;5097988;28;8863;-48
2021/06/06 22:27:08;;;;;;;;;4.75;4.75;;;;;;;;5082200;28;8760;-48
2021/06/06 22:29:53;;;;;;;;;5.00;5.00;;;;;;;;5100535;28;8764;-49
2021/06/06 22:32:37;;;;;;;;;5.50;5.50;;;;;;;;5084899;28;8799;-49
2021/06/06 22:35:20;;;;;;;;;4.25;4.25;;;;;;;;5103151;27;8772;-48
2021/06/06 22:38:05;;;;;;;;;5.25;5.25;;;;;;;;5081897;28;8791;-48
2021/06/06 22:40:48;;;;;;;;;4.25;4.25;;;;;;;;5077374;28;8882;-48
2021/06/06 22:43:33;;;;;;;;;4.75;4.75;;;;;;;;5079241;28;8793;-48
2021/06/06 22:46:17;;;;;;;;;5.75;5.75;;;;;;;;5078959;28;8785;-49
2021/06/06 22:49:01;;;;;;;;;2.75;2.75;;;;;;;;5083101;28;8771;-48
2021/06/06 22:51:45;;;;;;;;;4.75;4.75;;;;;;;;5083850;28;8858;-48
2021/06/06 22:54:29;;;;;;;;;4.50;4.50;;;;;;;;5079114;28;8820;-48
2021/06/06 22:57:13;;;;;;;;;4.25;4.25;;;;;;;;5076053;28;8777;-48
2021/06/06 22:59:57;;;;;;;;;4.25;4.25;;;;;;;;5079539;28;8793;-48
2021/06/06 23:02:40;;;;;;;;;5.00;5.00;;;;;;;;5098110;28;8852;-48
2021/06/06 23:05:24;;;;;;;;;5.75;5.00;;;;;;;;5093325;28;8853;-48
2021/06/06 23:08:12;;;;;;;;;5.00;5.00;;;;;;;;5078962;28;8790;-48
2021/06/06 23:10:56;;;;;;;;;6.75;6.00;;;;;;;;5079579;28;8774;-47
2021/06/06 23:13:40;;;;;;;;;5.75;5.75;;;;;;;;5079631;28;8874;-49
2021/06/06 23:16:05;;;;;;;;;5.00;5.00;;;;;;;;5078100;28;8830;-48
2021/06/06 23:18:30;;;;;;;;;5.00;5.00;;;;;;;;5081419;28;8790;-49
2021/06/06 23:20:56;;;;;;;;;5.67;5.67;;;;;;;;5078722;28;8769;-48
2021/06/06 23:23:21;;;;;;;;;6.00;5.67;;;;;;;;5082753;28;8860;-49
2021/06/06 23:25:46;;;;;;;;;4.00;4.00;;;;;;;;5098887;28;8808;-48
2021/06/06 23:28:12;;;;;;;;;5.00;5.00;;;;;;;;5085550;28;8794;-48
2021/06/06 23:30:37;;;;;;;;;4.00;4.00;;;;;;;;5079566;28;8796;-48
2021/06/06 23:33:02;;;;;;;;;5.00;5.00;;;;;;;;5081430;28;8782;-48
2021/06/06 23:35:27;;;;;;;;;6.00;5.33;;;;;;;;5080462;28;8796;-48
2021/06/06 23:37:53;;;;;;;;;4.67;4.67;;;;;;;;5077643;28;8778;-48
2021/06/06 23:40:18;;;;;;;;;5.67;5.33;;;;;;;;5093631;27;8786;-48
2021/06/06 23:42:43;;;;;;;;;7.00;6.00;;;;;;;;5087881;28;8814;-48
2021/06/06 23:45:09;;;;;;;;;6.00;5.00;;;;;;;;5086501;28;8782;-48
2021/06/06 23:47:35;;;;;;;;;5.00;5.00;;;;;;;;5098885;28;8878;-48
2021/06/06 23:50:00;;;;;;;;;5.75;5.75;;;;;;;;5083913;28;8778;-49
2021/06/06 23:52:26;;;;;;;;;6.67;6.67;;;;;;;;5078968;28;8789;-48
2021/06/06 23:54:52;;;;;;;;;6.00;6.00;;;;;;;;5077632;28;8786;-48
2021/06/06 23:57:18;;;;;;;;;7.00;6.00;;;;;;;;5080207;28;8748;-47
2021/06/06 23:59:43;;;;;;;;;6.00;6.00;;;;;;;;5082952;27;8796;-48
